Time;durP1;ratioP1;P1;durP2;ratioP2;P2;SDS_P1;SDS_P2;PMS_P1;PMS_P2;Temp;Humidity;BMP_temperature;BMP_pressure;BME280_temperature;BME280_humidity;BME280_pressure;Samples;Min_cycle;Max_cycle;Signal;HPM_P1;HPM_P2
2023/07/15 00:01:28;;;;;;;3.10;2.03;;;;;;;22.90;100.00;100658.94;5002250;28;20041;-80
2023/07/15 00:03:54;;;;;;;3.17;1.38;;;;;;;23.02;100.00;100703.88;5006809;28;20046;-82
2023/07/15 00:06:21;;;;;;;3.83;1.27;;;;;;;23.04;100.00;100703.78;5005611;28;20048;-79
2023/07/15 00:08:47;;;;;;;3.75;2.28;;;;;;;22.94;100.00;100689.94;5009671;28;20042;-78
2023/07/15 00:11:31;;;;;;;2.50;1.88;;;;;;;22.61;100.00;100626.34;5004596;28;20046;-78
2023/07/15 00:13:58;;;;;;;3.03;1.83;;;;;;;22.80;100.00;100671.84;5001980;28;20040;-78
2023/07/15 00:16:24;;;;;;;1.80;1.25;;;;;;;22.68;100.00;100645.66;5004000;28;20037;-84
2023/07/15 00:18:49;;;;;;;4.40;1.95;;;;;;;22.91;100.00;100720.38;5000998;28;20039;-82
2023/07/15 00:21:23;;;;;;;4.60;2.00;;;;;;;22.57;100.00;100654.22;4994675;28;20045;-80
2023/07/15 00:23:53;;;;;;;5.88;2.00;;;;;;;22.25;100.00;100619.09;4986950;28;20956;-83
2023/07/15 00:26:20;;;;;;;3.90;2.75;;;;;;;22.87;100.00;100721.47;5007028;28;20537;-82
2023/07/15 00:28:46;;;;;;;3.42;1.60;;;;;;;22.71;100.00;100699.91;5007017;28;20109;-78
2023/07/15 00:31:14;;;;;;;3.75;1.85;;;;;;;22.41;100.00;100635.31;4986162;28;20045;-77
2023/07/15 00:33:40;;;;;;;1.75;1.20;;;;;;;22.37;100.00;100652.44;5005205;28;20041;-78
2023/07/15 00:36:07;;;;;;;3.33;1.55;;;;;;;22.32;100.00;100627.72;4998690;28;20093;-77
2023/07/15 00:38:34;;;;;;;2.67;1.60;;;;;;;22.27;100.00;100622.56;5010997;28;20049;-77
2023/07/15 00:41:00;;;;;;;4.97;2.20;;;;;;;22.82;100.00;100711.91;4993797;28;20034;-79
2023/07/15 00:46:19;;;;;;;4.57;1.58;;;;;;;22.82;100.00;100730.66;5001057;28;20046;-81
2023/07/15 00:49:08;;;;;;;4.20;1.98;;;;;;;22.87;100.00;100732.16;5008528;28;20144;-81
2023/07/15 00:51:38;;;;;;;3.10;1.55;;;;;;;22.80;100.00;100736.06;5006235;28;20488;-80
2023/07/15 00:54:05;;;;;;;2.80;1.52;;;;;;;22.52;100.00;100715.94;5002799;28;20055;-77
2023/07/15 00:56:33;;;;;;;9.23;2.58;;;;;;;22.57;100.00;100701.47;5008003;28;20053;-81
2023/07/15 00:58:59;;;;;;;1.63;1.13;;;;;;;22.22;100.00;100645.97;5012606;28;20052;-78
2023/07/15 01:01:25;;;;;;;4.22;2.28;;;;;;;22.74;100.00;100729.19;5007882;28;20034;-79
2023/07/15 01:03:50;;;;;;;2.90;1.95;;;;;;;22.14;100.00;100643.59;5006482;28;20060;-80
2023/07/15 01:06:16;;;;;;;3.13;2.35;;;;;;;22.26;100.00;100701.03;5009151;28;20030;-78
2023/07/15 01:08:42;;;;;;;2.65;2.20;;;;;;;22.39;100.00;100709.38;5009733;28;20172;-78
2023/07/15 01:11:09;;;;;;;3.30;1.80;;;;;;;22.28;100.00;100674.22;5010771;28;20387;-77
2023/07/15 01:13:35;;;;;;;3.83;2.00;;;;;;;22.07;100.00;100652.81;5017637;28;20505;-88
2023/07/15 01:16:00;;;;;;;3.05;1.70;;;;;;;22.49;100.00;100717.88;5011086;28;20026;-81
2023/07/15 01:18:28;;;;;;;3.72;1.88;;;;;;;22.61;100.00;100727.16;5004655;28;20490;-79
2023/07/15 01:20:58;;;;;;;2.83;1.38;;;;;;;22.46;100.00;100728.72;5000399;28;20572;-78
2023/07/15 01:23:24;;;;;;;4.07;1.60;;;;;;;21.98;100.00;100649.69;5009465;28;20053;-81
2023/07/15 01:25:49;;;;;;;3.67;1.70;;;;;;;22.33;100.00;100704.31;5009804;28;20053;-83
2023/07/15 01:28:15;;;;;;;2.67;1.75;;;;;;;21.67;100.00;100630.50;5014845;28;20026;-84
2023/07/15 01:30:40;;;;;;;3.05;2.22;;;;;;;21.78;100.00;100642.53;5009639;28;20042;-80
2023/07/15 01:33:05;;;;;;;2.13;1.40;;;;;;;21.83;100.00;100656.56;5000179;28;20054;-80
2023/07/15 01:35:32;;;;;;;4.18;2.70;;;;;;;21.73;100.00;100655.22;5007956;28;20061;-82
2023/07/15 01:37:57;;;;;;;4.43;1.83;;;;;;;22.10;100.00;100756.94;5011030;28;20573;-77
2023/07/15 01:40:23;;;;;;;2.70;1.92;;;;;;;22.27;100.00;100734.84;4992087;28;20198;-78
2023/07/15 01:42:48;;;;;;;3.53;1.75;;;;;;;21.95;100.00;100679.22;5008998;28;20038;-81
2023/07/15 01:45:14;;;;;;;6.22;1.90;;;;;;;22.14;100.00;100717.56;5009740;28;20069;-80
2023/07/15 01:47:39;;;;;;;5.22;2.45;;;;;;;22.25;100.00;100733.19;5011686;28;20501;-79
2023/07/15 01:50:05;;;;;;;2.40;1.35;;;;;;;22.21;100.00;100719.06;4999003;28;20417;-77
2023/07/15 01:52:31;;;;;;;5.65;2.25;;;;;;;21.35;100.00;100580.22;5005195;28;20057;-79
2023/07/15 01:54:57;;;;;;;2.03;1.33;;;;;;;21.95;100.00;100697.94;5007768;28;20042;-80
2023/07/15 01:57:25;;;;;;;2.10;1.10;;;;;;;22.00;100.00;100687.91;4990590;28;20049;-78
2023/07/15 01:59:57;;;;;;;3.17;1.75;;;;;;;22.38;100.00;100750.41;5005763;28;20072;-81
2023/07/15 02:02:25;;;;;;;5.22;3.05;;;;;;;22.20;100.00;100752.06;4983949;28;20049;-78
2023/07/15 02:04:51;;;;;;;4.35;1.63;;;;;;;22.10;100.00;100719.53;5003546;28;20046;-79
2023/07/15 02:07:17;;;;;;;5.45;2.90;;;;;;;21.99;100.00;100726.25;5003686;28;20528;-81
2023/07/15 02:09:42;;;;;;;3.47;1.95;;;;;;;22.10;100.00;100742.69;5012228;28;20416;-79
2023/07/15 02:12:08;;;;;;;6.20;2.03;;;;;;;20.97;100.00;100548.84;5007816;28;20038;-76
2023/07/15 02:14:36;;;;;;;3.72;2.60;;;;;;;22.25;100.00;100762.59;5006905;28;20712;-78
2023/07/15 02:17:03;;;;;;;3.08;1.52;;;;;;;22.17;100.00;100760.19;5008659;28;20038;-80
2023/07/15 02:19:30;;;;;;;3.85;2.20;;;;;;;21.83;100.00;100707.34;4993956;28;20459;-77
2023/07/15 02:21:56;;;;;;;4.22;2.40;;;;;;;22.12;100.00;100760.44;5001773;28;20065;-79
2023/07/15 02:24:21;;;;;;;3.45;2.03;;;;;;;21.90;100.00;100712.34;5000414;28;20061;-78
2023/07/15 02:26:47;;;;;;;3.67;2.00;;;;;;;22.03;100.00;100752.78;5007271;28;20073;-79
2023/07/15 02:29:13;;;;;;;4.15;2.70;;;;;;;22.19;100.00;100761.00;5005598;28;20045;-78
2023/07/15 02:31:38;;;;;;;4.25;2.13;;;;;;;21.93;100.00;100735.38;5001066;28;20498;-78
2023/07/15 02:34:04;;;;;;;2.92;1.75;;;;;;;21.64;100.00;100693.88;4999944;28;20461;-76
2023/07/15 02:36:30;;;;;;;2.72;1.73;;;;;;;22.14;100.00;100777.25;5004888;28;20048;-79
2023/07/15 02:38:55;;;;;;;3.28;2.25;;;;;;;22.18;100.00;100771.78;5010587;28;20430;-76
2023/07/15 02:41:21;;;;;;;3.80;2.83;;;;;;;22.18;100.00;100767.31;5006335;28;20149;-79
2023/07/15 02:43:46;;;;;;;4.57;2.45;;;;;;;21.70;100.00;100688.25;5008357;28;20048;-77
2023/07/15 02:46:12;;;;;;;5.60;2.70;;;;;;;22.12;100.00;100763.09;4999415;28;20072;-82
2023/07/15 02:48:37;;;;;;;4.15;2.22;;;;;;;22.17;100.00;100780.72;5004066;28;20041;-80
2023/07/15 02:51:03;;;;;;;2.65;1.70;;;;;;;22.02;100.00;100772.41;4997572;28;20574;-81
2023/07/15 02:53:28;;;;;;;4.18;2.15;;;;;;;21.55;100.00;100681.75;5003414;28;20095;-79
2023/07/15 02:55:54;;;;;;;2.83;1.83;;;;;;;21.63;100.00;100698.34;5008881;28;20041;-78
2023/07/15 02:58:21;;;;;;;3.55;2.00;;;;;;;21.53;100.00;100691.63;4991212;28;20056;-82
2023/07/15 03:00:50;;;;;;;4.00;2.42;;;;;;;22.19;100.00;100784.19;5016632;28;20033;-77
2023/07/15 03:03:15;;;;;;;4.07;2.40;;;;;;;21.64;100.00;100689.41;4990551;28;20046;-78
2023/07/15 03:05:48;;;;;;;3.83;2.60;;;;;;;21.78;100.00;100720.88;5003903;28;20068;-77
2023/07/15 03:08:14;;;;;;;6.30;2.33;;;;;;;22.22;100.00;100786.78;4993459;28;20045;-81
2023/07/15 03:10:43;;;;;;;24.50;4.25;;;;;;;21.98;100.00;100765.47;5007364;28;20498;-80
2023/07/15 03:13:08;;;;;;;4.70;2.47;;;;;;;21.95;100.00;100756.72;5010932;28;20481;-82
2023/07/15 03:15:35;;;;;;;5.25;2.60;;;;;;;22.13;100.00;100802.25;5001147;28;20026;-78
2023/07/15 03:18:02;;;;;;;4.82;2.38;;;;;;;22.08;100.00;100784.69;5014829;28;20050;-77
2023/07/15 03:20:28;;;;;;;4.40;2.58;;;;;;;21.97;100.00;100778.91;5007654;28;20081;-77
2023/07/15 03:22:54;;;;;;;2.75;1.85;;;;;;;21.69;100.00;100716.78;5004246;28;20064;-80
2023/07/15 03:25:21;;;;;;;6.45;3.20;;;;;;;21.62;100.00;100719.78;5006252;28;20052;-88
2023/07/15 03:27:47;;;;;;;4.80;3.05;;;;;;;22.18;100.00;100807.41;4992283;28;20137;-79
2023/07/15 03:30:13;;;;;;;3.83;2.67;;;;;;;21.54;100.00;100720.09;5004090;28;20057;-84
2023/07/15 03:32:40;;;;;;;8.15;2.53;;;;;;;22.10;100.00;100794.38;5008278;28;20037;-85
2023/07/15 03:35:10;;;;;;;3.40;1.85;;;;;;;21.92;100.00;100765.72;5014524;28;20045;-80
2023/07/15 03:37:37;;;;;;;4.63;2.63;;;;;;;21.59;100.00;100717.25;5006154;28;20042;-79
2023/07/15 03:40:07;;;;;;;4.63;2.92;;;;;;;21.52;100.00;100703.25;5015266;28;20100;-81
2023/07/15 03:42:32;;;;;;;5.47;2.05;;;;;;;22.11;100.00;100805.91;5005030;28;20441;-78
2023/07/15 03:44:58;;;;;;;5.57;2.42;;;;;;;21.56;100.00;100717.34;5007474;28;20053;-79
2023/07/15 03:47:23;;;;;;;4.38;2.50;;;;;;;22.10;100.00;100826.44;5005181;28;20041;-83
2023/07/15 03:49:49;;;;;;;4.25;2.70;;;;;;;21.53;100.00;100728.16;5007716;28;20572;-80
2023/07/15 03:52:14;;;;;;;3.25;2.08;;;;;;;21.98;100.00;100824.25;4999118;28;20034;-82
2023/07/15 03:54:42;;;;;;;3.60;2.20;;;;;;;21.64;100.00;100758.84;5010797;28;20465;-78
2023/07/15 03:57:08;;;;;;;4.78;2.50;;;;;;;22.07;100.00;100825.69;4988400;28;20133;-75
2023/07/15 03:59:33;;;;;;;4.55;2.80;;;;;;;22.03;100.00;100803.56;5006878;28;20046;-80
2023/07/15 04:01:59;;;;;;;4.57;1.95;;;;;;;22.16;100.00;100822.63;5003178;28;20046;-78
2023/07/15 04:04:24;;;;;;;4.50;2.83;;;;;;;21.67;100.00;100731.13;5005421;28;20041;-78
2023/07/15 04:06:50;;;;;;;6.18;2.75;;;;;;;21.68;100.00;100754.22;5005648;28;20037;-84
2023/07/15 04:09:16;;;;;;;5.30;3.20;;;;;;;22.18;100.00;100815.41;5004973;28;20046;-78
2023/07/15 04:11:43;;;;;;;3.60;2.35;;;;;;;22.19;100.00;100811.78;5007076;28;20042;-75
2023/07/15 04:14:08;;;;;;;3.70;2.78;;;;;;;22.29;100.00;100826.56;5008959;28;20054;-79
2023/07/15 04:16:34;;;;;;;3.92;2.22;;;;;;;21.65;100.00;100720.50;5005810;28;20050;-77
2023/07/15 04:18:59;;;;;;;3.13;2.13;;;;;;;21.73;100.00;100733.56;5011476;28;20030;-80
2023/07/15 04:21:25;;;;;;;5.82;3.42;;;;;;;21.67;100.00;100744.50;5002148;28;20145;-80
2023/07/15 04:23:52;;;;;;;3.65;2.50;;;;;;;22.33;100.00;100835.31;5008045;28;20046;-80
2023/07/15 04:26:25;;;;;;;5.28;3.05;;;;;;;22.32;100.00;100813.06;5006700;28;20045;-78
2023/07/15 04:28:52;;;;;;;3.40;2.22;;;;;;;22.19;100.00;100776.19;5010184;28;20065;-82
2023/07/15 04:31:18;;;;;;;4.40;1.70;;;;;;;22.01;100.00;100735.06;5005762;28;20115;-78
2023/07/15 04:33:45;;;;;;;2.83;1.67;;;;;;;22.11;100.00;100745.31;5010730;28;20478;-77
2023/07/15 04:36:11;;;;;;;5.55;3.05;;;;;;;22.57;100.00;100812.03;5004359;28;20058;-78
2023/07/15 04:38:37;;;;;;;7.28;2.50;;;;;;;22.20;100.00;100749.41;5004366;28;20038;-76
2023/07/15 04:41:03;;;;;;;4.57;2.00;;;;;;;22.34;100.00;100755.03;5001711;28;20042;-77
2023/07/15 04:43:28;;;;;;;5.45;2.33;;;;;;;22.87;100.00;100833.84;5011123;28;20513;-78
2023/07/15 04:45:54;;;;;;;6.93;2.83;;;;;;;22.43;100.00;100742.19;5004667;28;20034;-77
2023/07/15 04:48:20;;;;;;;3.30;1.98;;;;;;;23.03;100.00;100851.97;5016091;28;20404;-79
2023/07/15 04:50:45;;;;;;;4.05;3.60;;;;;;;22.45;100.00;100761.72;5006812;28;20045;-78
2023/07/15 04:53:11;;;;;;;4.05;2.28;;;;;;;22.39;100.00;100746.81;5007801;28;20923;-78
2023/07/15 04:55:37;;;;;;;3.55;1.77;;;;;;;22.83;100.00;100816.22;5010719;28;20056;-79
2023/07/15 04:58:03;;;;;;;4.10;2.88;;;;;;;23.03;100.00;100842.13;5010701;28;20481;-76
2023/07/15 05:00:29;;;;;;;5.43;2.75;;;;;;;22.65;100.00;100779.59;5005858;28;20088;-77
2023/07/15 05:02:55;;;;;;;4.13;2.38;;;;;;;22.91;100.00;100832.78;4999501;28;20053;-78
2023/07/15 05:05:20;;;;;;;3.63;2.45;;;;;;;23.14;100.00;100847.00;5006359;28;20060;-86
2023/07/15 05:07:49;;;;;;;4.30;2.63;;;;;;;22.83;100.00;100793.91;5002583;28;20042;-78
2023/07/15 05:10:15;;;;;;;3.60;2.50;;;;;;;23.36;100.00;100841.50;5005307;28;20046;-78
2023/07/15 05:12:41;;;;;;;2.85;1.95;;;;;;;23.16;100.00;100757.63;5004922;28;20128;-87
2023/07/15 05:15:07;;;;;;;2.95;1.65;;;;;;;23.16;100.00;100757.63;5005899;28;20538;-79
2023/07/15 05:17:33;;;;;;;3.65;1.65;;;;;;;23.09;100.00;100760.69;4999526;28;20121;-81
2023/07/15 05:19:58;;;;;;;8.60;2.72;;;;;;;23.35;100.00;100819.22;4999027;28;20061;-78
2023/07/15 05:22:24;;;;;;;2.22;1.52;;;;;;;23.68;100.00;100874.84;4993430;28;20026;-77
2023/07/15 05:24:49;;;;;;;4.45;1.88;;;;;;;23.30;100.00;100799.81;5004076;28;20031;-77
2023/07/15 05:27:15;;;;;;;3.65;1.88;;;;;;;23.71;100.00;100847.03;5005160;28;20049;-81
2023/07/15 05:29:40;;;;;;;3.60;2.67;;;;;;;24.06;100.00;100856.06;5005014;28;20494;-77
2023/07/15 05:32:07;;;;;;;5.50;3.72;;;;;;;24.14;100.00;100791.31;5003915;28;20145;-75
2023/07/15 05:34:32;;;;;;;3.33;2.22;;;;;;;24.00;100.00;100624.00;5002922;28;20049;-75
2023/07/15 05:36:57;;;;;;;2.90;1.83;;;;;;;25.83;100.00;100871.88;5002266;28;20413;-74
2023/07/15 05:39:23;;;;;;;4.07;2.55;;;;;;;25.60;100.00;100794.34;4999536;28;20458;-75
2023/07/15 05:41:49;;;;;;;4.55;2.72;;;;;;;26.29;100.00;100880.03;5006412;28;20041;-75
2023/07/15 05:44:15;;;;;;;2.30;1.42;;;;;;;26.20;100.00;100855.47;4988238;28;20433;-73
2023/07/15 05:46:40;;;;;;;5.40;2.65;;;;;;;25.58;100.00;100804.31;5004643;28;20058;-75
2023/07/15 05:49:05;;;;;;;3.80;2.55;;;;;;;25.99;100.00;100854.88;5006594;28;20371;-75
2023/07/15 05:51:32;;;;;;;2.75;1.67;;;;;;;25.87;100.00;100886.91;5007368;28;20089;-74
2023/07/15 05:53:57;;;;;;;3.10;1.98;;;;;;;25.87;100.00;100878.84;5002455;28;20052;-75
2023/07/15 05:56:23;;;;;;;3.78;1.65;;;;;;;25.33;100.00;100821.78;5001949;28;20140;-75
2023/07/15 05:58:50;;;;;;;3.35;2.03;;;;;;;24.97;100.00;100808.53;5008568;28;20095;-75
2023/07/15 06:01:16;;;;;;;4.50;2.58;;;;;;;25.37;100.00;100863.66;4999917;28;20038;-75
2023/07/15 06:03:41;;;;;;;6.85;2.35;;;;;;;25.45;100.00;100890.09;5000433;28;20058;-75
2023/07/15 06:06:07;;;;;;;2.45;1.63;;;;;;;24.91;100.00;100788.25;5000393;28;20058;-74
2023/07/15 06:08:33;;;;;;;4.85;2.72;;;;;;;26.20;100.00;100858.16;5007130;28;20042;-79
2023/07/15 06:10:58;;;;;;;3.42;2.20;;;;;;;25.93;100.00;100809.53;5004839;28;20056;-78
2023/07/15 06:13:24;;;;;;;4.72;2.47;;;;;;;26.71;100.00;100891.94;4995091;28;20061;-77
2023/07/15 06:15:52;;;;;;;3.85;2.38;;;;;;;26.63;100.00;100826.91;4983002;28;20033;-76
2023/07/15 06:18:18;;;;;;;2.85;1.48;;;;;;;26.90;100.00;100890.81;5001426;28;20077;-77
2023/07/15 06:20:47;;;;;;;3.75;1.58;;;;;;;26.94;100.00;100903.13;5000917;28;20058;-75
2023/07/15 06:23:13;;;;;;;3.95;2.00;;;;;;;26.33;100.00;100873.50;4999884;28;20422;-77
2023/07/15 06:25:38;;;;;;;4.35;1.83;;;;;;;25.65;100.00;100819.13;5007778;28;20060;-80
2023/07/15 06:28:04;;;;;;;2.60;1.63;;;;;;;26.97;100.00;100889.47;5004113;28;20072;-76
2023/07/15 06:30:29;;;;;;;3.28;2.22;;;;;;;27.03;100.00;100878.34;5002738;28;20049;-77
2023/07/15 06:32:55;;;;;;;4.28;2.08;;;;;;;27.33;100.00;100869.34;5010478;28;20034;-75
2023/07/15 06:35:21;;;;;;;1.52;1.02;;;;;;;27.68;100.00;100895.91;5007851;28;20053;-78
2023/07/15 06:37:47;;;;;;;4.03;1.48;;;;;;;26.86;100.00;100849.75;5013728;28;20048;-79
2023/07/15 06:40:16;;;;;;;2.97;1.85;;;;;;;27.68;100.00;100895.91;5004368;28;20644;-77
2023/07/15 06:42:43;;;;;;;3.50;1.95;;;;;;;27.11;100.00;100805.09;4983374;28;20034;-76
2023/07/15 06:45:09;;;;;;;2.47;1.40;;;;;;;27.95;100.00;100874.38;5007499;28;20093;-81
2023/07/15 06:47:34;;;;;;;3.20;1.40;;;;;;;27.90;100.00;100888.16;4998743;28;20050;-77
2023/07/15 06:50:00;;;;;;;3.97;1.58;;;;;;;28.19;100.00;100861.97;5002340;28;20060;-77
2023/07/15 06:52:25;;;;;;;3.72;1.52;;;;;;;27.76;100.00;100828.84;5003177;28;20036;-75
2023/07/15 06:54:52;;;;;;;3.15;1.73;;;;;;;28.15;100.00;100873.09;4992696;28;20030;-83
2023/07/15 06:57:17;;;;;;;2.50;1.45;;;;;;;28.38;100.00;100875.09;5002454;28;20634;-76
2023/07/15 06:59:43;;;;;;;5.18;2.08;;;;;;;27.59;100.00;100811.06;5003134;28;20055;-79
2023/07/15 07:02:08;;;;;;;3.38;1.98;;;;;;;28.08;100.00;100799.75;5004320;28;20413;-77
2023/07/15 07:04:34;;;;;;;2.70;1.88;;;;;;;28.67;98.36;100868.72;5000936;28;20064;-82
2023/07/15 07:06:59;;;;;;;2.55;1.58;;;;;;;28.13;97.47;100869.63;5004640;28;20129;-76
2023/07/15 07:09:25;;;;;;;3.42;1.88;;;;;;;28.18;99.09;100813.50;4987695;28;20048;-81
2023/07/15 07:11:50;;;;;;;3.95;1.80;;;;;;;28.77;100.00;100889.56;5006825;28;20072;-84
2023/07/15 07:14:16;;;;;;;2.13;1.45;;;;;;;28.67;95.52;100871.44;5000555;28;20065;-73
2023/07/15 07:16:41;;;;;;;2.42;1.70;;;;;;;28.20;91.39;100811.56;5005745;28;20481;-75
2023/07/15 07:19:07;;;;;;;3.00;1.40;;;;;;;28.33;93.13;100807.06;4997877;28;20065;-74
2023/07/15 07:21:33;;;;;;;3.55;1.65;;;;;;;28.10;92.85;100797.84;5007810;28;20811;-73
2023/07/15 07:23:58;;;;;;;2.72;1.27;;;;;;;28.51;94.58;100821.16;5005531;28;20359;-78
2023/07/15 07:26:24;;;;;;;2.63;1.48;;;;;;;28.91;99.16;100882.38;4997575;28;20038;-78
2023/07/15 07:28:50;;;;;;;21.80;2.83;;;;;;;28.79;92.24;100881.38;4997477;28;20054;-82
2023/07/15 07:31:17;;;;;;;2.25;1.08;;;;;;;28.85;93.09;100872.00;4998144;28;20066;-78
2023/07/15 07:33:43;;;;;;;3.05;2.30;;;;;;;28.45;92.49;100790.97;4998793;28;20026;-74
2023/07/15 07:36:09;;;;;;;2.25;1.25;;;;;;;29.07;94.74;100874.94;5005431;28;20481;-75
2023/07/15 07:38:35;;;;;;;2.28;1.20;;;;;;;28.48;90.72;100813.28;5003684;28;20057;-74
2023/07/15 07:41:18;;;;;;;2.00;1.25;;;;;;;28.73;95.53;100835.88;5000203;28;20168;-76
2023/07/15 07:43:44;;;;;;;2.70;1.42;;;;;;;29.10;90.59;100881.97;5002848;28;20704;-74
2023/07/15 07:46:12;;;;;;;3.85;2.00;;;;;;;28.85;88.95;100815.28;4997147;28;20043;-73
2023/07/15 07:48:38;;;;;;;2.03;1.55;;;;;;;28.24;84.78;100815.78;5001209;28;20084;-74
2023/07/15 07:51:03;;;;;;;7.40;1.50;;;;;;;28.50;87.40;100826.69;4992002;28;20474;-75
2023/07/15 07:53:29;;;;;;;2.80;1.65;;;;;;;29.15;90.25;100878.00;4993346;28;20093;-76
2023/07/15 07:55:54;;;;;;;8.70;2.03;;;;;;;29.22;89.82;100857.66;4989173;28;20903;-73
2023/07/15 07:58:20;;;;;;;5.07;1.85;;;;;;;29.42;84.45;100849.94;5006506;28;20041;-77
2023/07/15 08:00:46;;;;;;;2.33;1.75;;;;;;;29.24;85.29;100807.06;5005660;28;20034;-76
2023/07/15 08:03:12;;;;;;;3.30;1.55;;;;;;;29.08;82.79;100862.28;5000901;28;20060;-74
2023/07/15 08:05:45;;;;;;;2.25;1.17;;;;;;;29.57;84.64;100865.06;5005708;28;20129;-73
2023/07/15 08:08:12;;;;;;;1.48;0.98;;;;;;;29.07;80.25;100809.19;5003141;28;20502;-78
2023/07/15 08:10:38;;;;;;;2.88;1.95;;;;;;;29.33;83.82;100801.94;5002289;28;20788;-75
2023/07/15 08:13:05;;;;;;;3.83;1.60;;;;;;;29.28;79.70;100841.97;5012813;28;20044;-75
2023/07/15 08:15:35;;;;;;;1.90;1.25;;;;;;;29.95;83.50;100872.25;5001911;28;20034;-77
2023/07/15 08:18:01;;;;;;;3.22;1.63;;;;;;;28.88;76.25;100813.19;4999710;28;20109;-73
2023/07/15 08:20:27;;;;;;;2.70;1.52;;;;;;;29.20;80.49;100877.66;5005900;28;20041;-74
2023/07/15 08:22:52;;;;;;;2.72;1.30;;;;;;;29.15;80.38;100786.09;4984616;28;20038;-73
2023/07/15 08:25:18;;;;;;;2.15;1.23;;;;;;;30.31;82.11;100866.94;5006969;28;20049;-75
2023/07/15 08:27:43;;;;;;;1.85;1.00;;;;;;;30.20;78.81;100779.19;4997561;28;20468;-79
2023/07/15 08:30:09;;;;;;;4.35;1.13;;;;;;;30.06;74.68;100788.41;5006525;28;20469;-73
2023/07/15 08:32:34;;;;;;;3.55;1.63;;;;;;;30.21;71.40;100851.34;4999003;28;20368;-76
2023/07/15 08:35:02;;;;;;;2.38;1.02;;;;;;;30.09;71.48;100855.84;4999306;28;20042;-76
2023/07/15 08:37:27;;;;;;;2.22;1.38;;;;;;;30.84;78.00;100862.81;4993373;28;20108;-73
2023/07/15 08:39:53;;;;;;;2.28;1.27;;;;;;;29.81;69.42;100791.25;5000230;28;20038;-76
2023/07/15 08:42:22;;;;;;;1.70;1.00;;;;;;;30.69;72.22;100856.69;4997495;28;20081;-76
2023/07/15 08:44:48;;;;;;;2.10;1.35;;;;;;;30.17;69.13;100860.66;4990325;28;20074;-76
2023/07/15 08:47:19;;;;;;;5.05;2.33;;;;;;;30.61;67.60;100851.03;4989681;28;20041;-76
2023/07/15 08:49:44;;;;;;;3.58;1.73;;;;;;;31.20;70.21;100855.47;4997979;28;20120;-75
2023/07/15 08:52:11;;;;;;;2.58;1.67;;;;;;;30.61;69.79;100844.75;4993519;28;20796;-75
2023/07/15 08:54:39;;;;;;;5.57;2.20;;;;;;;31.32;68.25;100837.34;4992925;28;20038;-80
2023/07/15 08:57:06;;;;;;;2.78;2.00;;;;;;;30.60;63.37;100765.34;4991525;28;20030;-74
2023/07/15 08:59:32;;;;;;;3.45;2.05;;;;;;;31.08;64.92;100845.59;4992718;28;20058;-75
2023/07/15 09:01:59;;;;;;;2.17;1.38;;;;;;;30.97;64.07;100789.53;4996287;28;20046;-77
2023/07/15 09:04:25;;;;;;;4.32;2.15;;;;;;;31.48;65.02;100847.84;5004529;28;20038;-79
2023/07/15 09:06:54;;;;;;;2.88;1.80;;;;;;;31.79;62.81;100829.06;4999522;28;20170;-77
2023/07/15 09:09:30;;;;;;;2.10;1.67;;;;;;;31.69;65.88;100782.84;5011009;28;20052;-75
2023/07/15 09:12:00;;;;;;;1.90;1.33;;;;;;;32.21;59.83;100835.50;4996911;28;20125;-76
2023/07/15 09:14:25;;;;;;;2.05;1.08;;;;;;;32.13;60.28;100847.00;5005308;28;20061;-76
2023/07/15 09:16:52;;;;;;;3.63;1.85;;;;;;;32.34;61.99;100833.47;5004854;28;20091;-81
2023/07/15 09:19:21;;;;;;;2.47;1.38;;;;;;;31.17;61.72;100749.13;4996505;28;20498;-76
2023/07/15 09:22:07;;;;;;;3.03;2.08;;;;;;;31.33;59.88;100763.16;4997952;28;20698;-78
2023/07/15 09:24:35;;;;;;;2.72;1.63;;;;;;;31.44;60.76;100821.97;5008505;28;20192;-80
2023/07/15 09:27:01;;;;;;;3.13;2.10;;;;;;;31.41;59.96;100825.78;5000749;28;20065;-76
2023/07/15 09:29:26;;;;;;;2.35;1.75;;;;;;;32.41;60.63;100775.91;5006969;28;20065;-75
2023/07/15 09:31:52;;;;;;;6.75;2.45;;;;;;;33.09;58.15;100774.47;5007505;28;20041;-77
2023/07/15 09:34:18;;;;;;;2.97;1.90;;;;;;;33.36;55.80;100746.63;5007362;28;20042;-79
2023/07/15 09:36:44;;;;;;;1.70;1.25;;;;;;;32.30;54.38;100774.94;4989038;28;20085;-75
2023/07/15 09:39:22;;;;;;;2.15;1.30;;;;;;;31.46;58.82;100825.41;4988330;28;20080;-75
2023/07/15 09:42:04;;;;;;;2.55;1.23;;;;;;;33.24;56.61;100823.91;5008734;28;20065;-75
2023/07/15 09:44:40;;;;;;;4.38;1.33;;;;;;;33.34;55.37;100832.09;5008617;28;20387;-79
2023/07/15 09:47:07;;;;;;;3.25;1.73;;;;;;;32.98;53.84;100805.28;5006380;28;20117;-76
2023/07/15 09:49:33;;;;;;;2.97;2.08;;;;;;;32.77;56.24;100827.06;5010010;28;20038;-75
2023/07/15 09:52:01;;;;;;;1.65;1.17;;;;;;;33.23;54.53;100814.03;5011888;28;20042;-77
2023/07/15 09:54:30;;;;;;;3.47;1.85;;;;;;;33.23;55.34;100746.03;5011421;28;20026;-74
2023/07/15 09:57:25;;;;;;;3.83;1.77;;;;;;;34.04;52.14;100806.66;5006896;28;20054;-76
2023/07/15 09:59:52;;;;;;;6.10;1.83;;;;;;;33.31;53.68;100751.63;4995380;28;20073;-79
2023/07/15 10:02:35;;;;;;;2.17;1.38;;;;;;;33.74;54.24;100826.69;5006226;28;20802;-76
2023/07/15 10:05:04;;;;;;;2.03;1.40;;;;;;;32.03;56.78;100742.00;5008845;28;20070;-76
2023/07/15 10:07:32;;;;;;;2.08;1.33;;;;;;;33.17;55.84;100806.41;5008504;28;20058;-75
2023/07/15 10:10:01;;;;;;;4.35;2.05;;;;;;;33.38;53.07;100826.25;5005831;28;20038;-78
2023/07/15 10:12:27;;;;;;;2.30;1.58;;;;;;;32.42;54.03;100815.66;5013034;28;20537;-77
2023/07/15 10:14:54;;;;;;;2.38;1.98;;;;;;;33.62;55.43;100793.28;5010092;28;20045;-75
2023/07/15 10:17:19;;;;;;;6.68;2.13;;;;;;;33.30;53.75;100752.63;4997377;28;20129;-78
2023/07/15 10:20:01;;;;;;;0.93;0.88;;;;;;;33.32;52.96;100809.59;5007918;28;20049;-78
2023/07/15 10:22:33;;;;;;;1.93;1.33;;;;;;;34.00;52.44;100775.25;5009965;28;20444;-77
2023/07/15 10:25:01;;;;;;;2.50;1.40;;;;;;;34.59;50.67;100783.41;5015473;28;20099;-74
2023/07/15 10:27:28;;;;;;;3.72;2.08;;;;;;;34.48;48.63;100796.16;5008372;28;20064;-75
2023/07/15 10:30:23;;;;;;;3.50;2.70;;;;;;;32.17;51.21;100799.59;5011256;28;20069;-77
2023/07/15 10:32:58;;;;;;;2.55;1.33;;;;;;;33.64;50.99;100799.41;5016951;28;20071;-76
2023/07/15 10:35:26;;;;;;;3.28;1.83;;;;;;;33.18;51.12;100794.56;5013585;28;20379;-78
2023/07/15 10:37:51;;;;;;;3.70;1.95;;;;;;;32.53;52.56;100737.69;5011417;28;20049;-76
2023/07/15 10:40:48;;;;;;;2.63;1.45;;;;;;;33.28;50.76;100787.28;5014473;28;20125;-75
2023/07/15 10:43:21;;;;;;;4.20;1.67;;;;;;;32.75;52.71;100771.13;4997877;28;20394;-77
2023/07/15 10:45:54;;;;;;;3.50;1.70;;;;;;;33.00;52.40;100787.00;4986976;28;20445;-76
2023/07/15 10:48:21;;;;;;;3.53;2.10;;;;;;;33.91;53.86;100713.47;5001381;28;20125;-76
2023/07/15 10:50:51;;;;;;;3.00;1.58;;;;;;;34.50;50.51;100767.94;4992206;28;20050;-76
2023/07/15 10:53:27;;;;;;;4.25;2.10;;;;;;;34.47;48.78;100742.69;5005384;28;20124;-75
2023/07/15 10:55:57;;;;;;;6.57;1.45;;;;;;;34.65;49.15;100786.44;5002708;28;20042;-75
2023/07/15 10:58:22;;;;;;;3.30;1.95;;;;;;;33.94;48.90;100758.63;5007181;28;20041;-75
2023/07/15 11:00:49;;;;;;;2.63;1.67;;;;;;;33.44;49.20;100683.34;4985249;28;20034;-80
2023/07/15 11:03:17;;;;;;;4.32;2.22;;;;;;;32.59;50.50;100706.38;4999100;28;20565;-78
2023/07/15 11:05:45;;;;;;;2.42;1.83;;;;;;;34.36;51.08;100761.06;4998484;28;20132;-80
2023/07/15 11:08:10;;;;;;;14.38;1.80;;;;;;;34.18;48.91;100775.41;4999481;28;20780;-78
2023/07/15 11:10:36;;;;;;;2.13;1.67;;;;;;;32.23;50.49;100713.16;4995975;28;20108;-80
2023/07/15 11:13:12;;;;;;;3.15;1.50;;;;;;;32.07;54.85;100760.63;5003339;28;20084;-76
2023/07/15 11:15:37;;;;;;;1.85;1.13;;;;;;;34.16;50.66;100774.72;5005199;28;20040;-76
2023/07/15 11:18:03;;;;;;;3.67;1.65;;;;;;;33.99;50.62;100667.31;5006540;28;20458;-76
2023/07/15 11:20:28;;;;;;;2.47;1.42;;;;;;;33.96;49.10;100751.19;5004220;28;20045;-77
2023/07/15 11:22:55;;;;;;;3.15;1.88;;;;;;;33.70;52.87;100772.66;5006503;28;20418;-76